Tiempo atmosférico en la estación meteorológica de Ejea De Los Caballeros, Zaragoza (321 m.)

Fecha
DESCASC
Temp. máxima en grados centígrados (hora)
DESCASC
Temp. mínima en grados centígrados (hora)
DESCASC
Temp. media en grados centígrados
DESCASC
Racha de viento máxima en m/sg (hora)
DESCASC
Velocidad máxima media en intervalos de 10 minutos(hora)
DESCASC
Precipitaciones diarias en mm
DESCASC
Precipitaciones de 00:00 a 06:00 en mm
DESCASC
Precipitaciones de 06:00 a 12:00 en mm
DESCASC
Precipitaciones de 12:00 a 18:00 en mm
DESCASC
Precipitaciones de 18:00 a 24:00 en mm
DESCASC
21-08-2017 35.2 (17:10) 12.5 (07:40) 23.9 5.56 (18:30) 1.67 (14:00) 0 0 0 0 0
20-08-2017 30.8 (17:10) 14 (07:30) 22.4 6.11 (03:40) 1.94 (13:20) 0 0 0 0 0
19-08-2017 30 (16:50) 17.1 (06:10) 23.6 6.39 (19:30) 2.5 (23:10) 0 0 0 0 0
18-08-2017 32.3 (15:30) 19.9 (23:59) 26.1 9.44 (16:40) 3.33 (18:10) 0 0 0 0 0
17-08-2017 35.6 (17:00) 15.4 (00:00) 25.5 3.61 (00:20) 1.67 (00:20) 0 0 0 0 0
16-08-2017 32.8 (17:50) 16.8 (00:00) 24.8 5.28 (20:00) 1.67 (14:50) 0 0 0 0 0
15-08-2017 33.8 (16:50) 18.7 (00:00) 26.3 7.78 (13:30) 2.5 (12:10) 1 0 0 0 1
14-08-2017 34.1 (17:00) 18.3 (07:40) 26.2 8.89 (18:20) 2.78 (22:50) 0.4 0 0 0 0.4
13-08-2017 33 (16:50) 12.6 (00:00) 22.8 4.72 (17:10) 2.22 (17:30) 0 0 0 0 0
12-08-2017 30.8 (17:30) 10.9 (00:00) 20.8 6.11 (19:40) 2.22 (20:00) 0 0 0 0 0
11-08-2017 25.5 (16:20) 12.5 (00:00) 19 10.28 (12:30) 2.78 (12:30) 0 0 0 0 0
10-08-2017 23 (16:40) 12.7 (00:00) 17.8 11.11 (19:10) 5 (19:00) 0 0 0 0 0
09-08-2017 23.8 (15:10) 12.1 (00:00) 17.9 11.11 (18:40) 5.28 (17:50) 0 0 0 0 0
08-08-2017 26.5 (16:50) 16.8 (00:00) 21.6 10.28 (13:30) 4.72 (19:00) 0 0 0 0 0
07-08-2017 33.3 (16:10) 18.4 (00:00) 25.8 10.28 (18:40) 3.06 (18:40) 0 0 0 0 0
06-08-2017 29.4 (17:50) 16.2 (00:00) 22.8 7.22 (04:20) 2.22 (03:20) 0 0 0 0 0
05-08-2017 32.7 (16:20) 18.4 (00:00) 25.6 8.89 (23:20) 3.06 (18:50) 0.2 0 0 0 0.2
04-08-2017 37.2 (17:40) 19.4 (00:00) 28.3 6.39 (19:50) 2.5 (19:30) 0 0 0 0 0
03-08-2017 38.3 (16:50) 22.1 (00:00) 30.2 5.28 (02:50) 2.22 (17:20) 0 0 0 0 0
02-08-2017 36.1 (17:40) 18.3 (00:00) 27.2 8.61 (19:00) 3.33 (14:10) 0 0 0 0 0
01-08-2017 33.2 (17:30) 18.2 (00:00) 25.7 6.67 (00:30) 1.94 (15:20) 0 0 0 0 0
31-07-2017 35.2 (17:40) 17.5 (00:00) 26.4 7.78 (17:00) 2.78 (22:00) 0 0 0 0 0
30-07-2017 38.1 (16:50) 22.1 (00:00) 30.1 6.39 (03:40) 1.94 (17:00) 0 0 0 0 0
29-07-2017 36.3 (17:30) 17.4 (00:00) 26.8 7.22 (12:20) 2.22 (11:30) 0 0 0 0 0
28-07-2017 35.7 (17:20) 17.8 (00:00) 26.8 5.56 (21:10) 2.5 (21:30) 0 0 0 0 0
27-07-2017 35.6 (17:00) 15.4 (00:00) 25.5 5.28 (17:00) 2.22 (20:40) 0 0 0 0 0
26-07-2017 30.7 (16:20) 14.8 (00:00) 22.8 8.33 (20:20) 3.89 (20:10) 0 0 0 0 0
25-07-2017 25.9 (16:00) 15.4 (00:00) 20.6 10.56 (15:30) 3.33 (14:20) 0 0 0 0 0
24-07-2017 27.6 (15:20) 17.1 (00:00) 22.4 11.67 (12:10) 4.44 (14:40) 0 0 0 0 0
23-07-2017 30.6 (17:40) 15.9 (00:00) 23.3 8.33 (19:50) 2.78 (21:00) 0 0 0 0 0

Gráficas

Temp. máximas Temp. mínimas Temp. medias Precipitaciones Rachas de viento máximas Velocidades máximas media en intervalos de 10 minutos

Datos horarios

Fecha y hora oficial Temperatura (ºC) Velocidad del viento (km/h) Dirección del viento Racha (km/h) Dirección de racha Precipitación (mm) Presión (hPa) Tendencia (hPa) Humedad (%)
2017-08-21 23:00:00 24.1 5 Nordeste 12 Sudeste 0 -- -- 47
2017-08-21 22:00:00 26.7 4 Nordeste 14 Nordeste 0 -- -- 41
2017-08-21 21:00:00 29.9 3 Nordeste 17 Nordeste 0 -- -- 34
2017-08-21 20:00:00 32.1 4 Este 15 Nordeste 0 -- -- 33
2017-08-21 19:00:00 33.2 5 Este 20 Este 0 -- -- 31
2017-08-21 18:00:00 34.5 6 Este 17 Nordeste 0 -- -- 28
2017-08-21 17:00:00 34.9 5 Nordeste 16 Este 0 -- -- 32
2017-08-21 16:00:00 34.2 4 Este 17 Nordeste 0 -- -- 30
2017-08-21 15:00:00 33 5 Este 17 Nordeste 0 -- -- 31
2017-08-21 14:00:00 31.6 6 Nordeste 16 Norte 0 -- -- 34
2017-08-21 13:00:00 29.5 4 Este 15 Nordeste 0 -- -- 40
2017-08-21 12:00:00 26.9 5 Este 18 Este 0 -- -- 51
2017-08-21 11:00:00 24.1 5 Nordeste 17 Nordeste 0 -- -- 65
2017-08-21 10:00:00 19.5 3 Nordeste 8 Norte 0 -- -- 74
2017-08-21 09:00:00 14.2 0 Calma 6 Norte 0 -- -- 86
2017-08-21 08:00:00 12.5 0 Calma 4 Nordeste 0 -- -- 86
2017-08-21 07:00:00 12.8 0 Calma 3 Este 0 -- -- 86
2017-08-21 06:00:00 13.4 0 Calma 5 Nordeste 0 -- -- 83
2017-08-21 05:00:00 14.2 2 Nordeste 7 Nordeste 0 -- -- 82
2017-08-21 04:00:00 15.2 0 Calma 4 Nordeste 0 -- -- 77
2017-08-21 03:00:00 16.4 0 Calma 3 Noroeste 0 -- -- 76
2017-08-21 02:00:00 17.3 0 Calma 5 Sudoeste 0 -- -- 72
2017-08-21 01:00:00 18.5 2 Sur 13 Sudoeste 0 -- -- 67
2017-08-21 00:00:00 19.7 3 Sudoeste 10 Sudoeste 0 -- -- 62
2017-08-20 23:00:00 20.9 3 Sur 9 Noroeste 0 -- -- 57
2017-08-20 22:00:00 23.3 4 Oeste 13 Oeste 0 -- -- 49
2017-08-20 21:00:00 25.4 3 Oeste 13 Oeste 0 -- -- 44
2017-08-20 20:00:00 28.1 3 Oeste 17 Noroeste 0 -- -- 36
2017-08-20 19:00:00 29.2 5 Oeste 20 Noroeste 0 -- -- 30
2017-08-20 18:00:00 30.5 4 Oeste 21 Oeste 0 -- -- 28
2017-08-20 17:00:00 30.7 4 Oeste 16 Oeste 0 -- -- 28
2017-08-20 16:00:00 29.7 5 Oeste 18 Oeste 0 -- -- 31
2017-08-20 15:00:00 28.5 6 Sudoeste 16 Sudoeste 0 -- -- 31
2017-08-20 14:00:00 27.1 4 Oeste 19 Norte 0 -- -- 36
2017-08-20 13:00:00 25.8 4 Noroeste 18 Norte 0 -- -- 39
2017-08-20 12:00:00 23.8 6 Norte 18 Sudoeste 0 -- -- 42
2017-08-20 11:00:00 21 5 Oeste 18 Noroeste 0 -- -- 56
2017-08-20 10:00:00 18.4 5 Oeste 21 Noroeste 0 -- -- 63
2017-08-20 09:00:00 15.5 4 Oeste 16 Noroeste 0 -- -- 75
2017-08-20 08:00:00 14.2 2 Oeste 10 Oeste 0 -- -- 80
2017-08-20 07:00:00 14.3 3 Oeste 12 Noroeste 0 -- -- 80
2017-08-20 06:00:00 14.5 2 Oeste 12 Sudoeste 0 -- -- 80
2017-08-20 05:00:00 14.8 4 Sudoeste 13 Oeste 0.2 -- -- 80
2017-08-20 04:00:00 15.6 3 Oeste 22 Noroeste 0 -- -- 75
2017-08-20 03:00:00 15.8 5 Oeste 19 Noroeste 0 -- -- 74
2017-08-20 02:00:00 16.3 5 Oeste 15 Noroeste 0 -- -- 73
2017-08-20 01:00:00 17.3 4 Sudoeste 12 Sur 0 -- -- 70
2017-08-20 00:00:00 18.4 4 Sudoeste 15 Sudoeste 0 -- -- 65
2017-08-19 23:00:00 20.4 9 Sudoeste 17 Sudoeste 0 -- -- 60
2017-08-19 22:00:00 22.6 3 Sudoeste 13 Noroeste 0 -- -- 49
2017-08-19 21:00:00 25 4 Norte 19 Oeste 0 -- -- 42
2017-08-19 20:00:00 26.6 5 Oeste 23 Noroeste 0 -- -- 41
2017-08-19 19:00:00 28.1 6 Oeste 21 Noroeste 0 -- -- 35
2017-08-19 18:00:00 29.4 5 Oeste 20 Oeste 0 -- -- 31
2017-08-19 17:00:00 29.9 6 Oeste 19 Sur 0 -- -- 32
2017-08-19 16:00:00 29.1 5 Oeste 20 Noroeste 0 -- -- 33
2017-08-19 15:00:00 28 4 Oeste 15 Sur 0 -- -- 37
2017-08-19 14:00:00 27.1 5 Oeste 18 Oeste 0 -- -- 41
2017-08-19 13:00:00 25.9 6 Oeste 22 Oeste 0 -- -- 44
2017-08-19 12:00:00 25.1 7 Oeste 20 Oeste 0 -- -- 48
2017-08-19 11:00:00 23.2 5 Oeste 18 Oeste 0 -- -- 52
2017-08-19 10:00:00 21 5 Oeste 22 Oeste 0 -- -- 63
2017-08-19 09:00:00 18.4 4 Oeste 17 Noroeste 0 -- -- 73
2017-08-19 08:00:00 17.3 3 Oeste 18 Noroeste 0 -- -- 78
2017-08-19 07:00:00 17.3 4 Oeste 15 Noroeste 0 -- -- 79
2017-08-19 06:00:00 17.2 3 Sudoeste 11 Oeste 0 -- -- 81
2017-08-19 05:00:00 17.6 4 Oeste 14 Oeste 0 -- -- 81
2017-08-19 04:00:00 18.3 4 Oeste 18 Norte 0 -- -- 75
2017-08-19 03:00:00 18.5 3 Oeste 19 Noroeste 0 -- -- 75
2017-08-19 02:00:00 18.9 5 Oeste 18 Noroeste 0 -- -- 73
2017-08-19 01:00:00 19.5 5 Oeste 16 Oeste 0 -- -- 70
2017-08-19 00:00:00 19.9 5 Oeste 19 Noroeste 0 -- -- 70
2017-08-18 23:00:00 21 5 Oeste 23 Oeste 0 -- -- 69
2017-08-18 22:00:00 22.7 5 Oeste 19 Noroeste 0 -- -- 62
2017-08-18 21:00:00 23.6 6 Oeste 28 Oeste 0 -- -- 60
2017-08-18 20:00:00 25.4 7 Oeste 31 Oeste 0 -- -- 55
2017-08-18 19:00:00 27.2 6 Noroeste 31 Norte 0 -- -- 49
2017-08-18 18:00:00 30.2 10 Norte 29 Norte 0 -- -- 43
2017-08-18 17:00:00 31.6 6 Noroeste 34 Oeste 0 -- -- 43
2017-08-18 16:00:00 32.1 7 Oeste 24 Sudoeste 0 -- -- 44
2017-08-18 15:00:00 32 6 Oeste 20 Norte 0 -- -- 44
2017-08-18 14:00:00 30.8 5 Oeste 19 Noroeste 0 -- -- 47
2017-08-18 13:00:00 30.2 4 Oeste 15 Sudoeste 0 -- -- 49
2017-08-18 12:00:00 29.2 5 Sudoeste 14 Sudoeste 0 -- -- 54
2017-08-18 11:00:00 27.3 2 Sur 8 Sur 0 -- -- 56
2017-08-18 10:00:00 24.5 4 Nordeste 10 Nordeste 0 -- -- 67
2017-08-18 09:00:00 21.2 2 Norte 4 Nordeste 0 -- -- 78
2017-08-18 08:00:00 20.1 0 Calma 3 Nordeste 0 -- -- 82
2017-08-18 07:00:00 20.6 0 Calma 7 Norte 0 -- -- 79
2017-08-18 06:00:00 21.5 3 Nordeste 13 Este 0 -- -- 75
2017-08-18 05:00:00 22.2 0 Calma 13 Este 0 -- -- 75
2017-08-18 04:00:00 23.4 6 Este 20 Nordeste 0 -- -- 67
2017-08-18 03:00:00 24.5 6 Este 21 Nordeste 0 -- -- 63
2017-08-18 02:00:00 25.3 5 Nordeste 19 Nordeste 0 -- -- 56
2017-08-18 01:00:00 23.8 4 Nordeste 8 Nordeste 0 -- -- 55
2017-08-18 00:00:00 23.9 2 Nordeste 8 Nordeste 0 -- -- 58
2017-08-17 23:00:00 25.4 2 Este 6 Nordeste 0 -- -- 56
2017-08-17 22:00:00 27.4 2 Sur 6 Este 0 -- -- 48
2017-08-17 21:00:00 29.8 0 Calma 4 Norte 0 -- -- 44
2017-08-17 20:00:00 32.1 0 Calma 9 Sur 0 -- -- 39
2017-08-17 19:00:00 34.3 2 Oeste 10 Norte 0 -- -- 30
2017-08-17 18:00:00 35.3 4 Norte 12 Norte 0 -- -- 28
2017-08-17 17:00:00 35.6 2 Sudoeste 9 Sudoeste 0 -- -- 29
2017-08-17 16:00:00 34.5 4 Oeste 10 Sudoeste 0 -- -- 28
2017-08-17 15:00:00 32.9 4 Oeste 12 Oeste 0 -- -- 32
2017-08-17 14:00:00 30.8 5 Sudoeste 12 Sudoeste 0 -- -- 35
2017-08-17 13:00:00 28.9 3 Sur 9 Sudoeste 0 -- -- 43
2017-08-17 12:00:00 26.3 4 Sudoeste 10 Sudoeste 0 -- -- 53
2017-08-17 11:00:00 23.5 3 Noroeste 8 Sudoeste 0 -- -- 55
2017-08-17 10:00:00 19.6 3 Sudoeste 9 Norte 0 -- -- 68
2017-08-17 09:00:00 16.2 4 Norte 7 Norte 0 -- -- 78
2017-08-17 08:00:00 15.4 2 Sudoeste 9 Sudoeste 0 -- -- 81
2017-08-17 07:00:00 16.1 3 Sudoeste 8 Oeste 0 -- -- 80
2017-08-17 06:00:00 16.9 2 Oeste 7 Noroeste 0 -- -- 77
2017-08-17 05:00:00 17.4 0 Calma 6 Oeste 0 -- -- 79
2017-08-17 04:00:00 18.2 0 Calma 10 Norte 0 -- -- 73
2017-08-17 03:00:00 18.8 2 Sudoeste 7 Sudoeste 0 -- -- 70
2017-08-17 02:00:00 18.9 0 Calma 10 Sur 0 -- -- 68
2017-08-17 01:00:00 19.8 3 Sudoeste 13 Sur 0 -- -- 60
2017-08-17 00:00:00 21 2 Sudoeste 11 Noroeste 0 -- -- 57
2017-08-16 23:00:00 22.8 3 Sudoeste 14 Oeste 0 -- -- 55
2017-08-16 22:00:00 24.9 3 Norte 12 Norte 0 -- -- 58
2017-08-16 21:00:00 27.4 4 Norte 16 Noroeste 0 -- -- 52
2017-08-16 20:00:00 29.7 5 Oeste 19 Norte 0 -- -- 40
2017-08-16 19:00:00 31.3 4 Oeste 16 Noroeste 0 -- -- 35
2017-08-16 18:00:00 32.8 4 Oeste 13 Norte 0 -- -- 34
2017-08-16 17:00:00 32.2 4 Sudoeste 14 Sudoeste 0 -- -- 43
2017-08-16 16:00:00 31.3 4 Oeste 14 Norte 0 -- -- 44
2017-08-16 15:00:00 30.2 5 Sudoeste 14 Sudoeste 0 -- -- 51
2017-08-16 14:00:00 28.8 3 Noroeste 10 Norte 0 -- -- 55
2017-08-16 13:00:00 27.5 2 Sur 13 Norte 0 -- -- 55
2017-08-16 12:00:00 25.4 4 Sudoeste 12 Oeste 0 -- -- 64
2017-08-16 11:00:00 22.6 3 Oeste 9 Noroeste 0 -- -- 74
2017-08-16 10:00:00 19.8 3 Oeste 8 Oeste 0 -- -- 83
2017-08-16 09:00:00 17.6 0 Calma 4 Sudoeste 0 -- -- 90
2017-08-16 08:00:00 16.8 0 Calma 4 Oeste 0 -- -- 90
2017-08-16 07:00:00 17.1 0 Calma 5 Noroeste 0 -- -- 90
2017-08-16 06:00:00 17.4 0 Calma 3 Sudoeste 0 -- -- 88
2017-08-16 05:00:00 18.1 0 Calma 5 Sur 0 -- -- 87
2017-08-16 04:00:00 18.7 0 Calma 6 Noroeste 0 -- -- 82
2017-08-16 03:00:00 19.2 2 Oeste 8 Noroeste 0 -- -- 80
2017-08-16 02:00:00 19.5 4 Sudoeste 10 Noroeste 0 -- -- 79
2017-08-16 01:00:00 20.4 3 Oeste 12 Noroeste 0 -- -- 75
2017-08-16 00:00:00 21.5 3 Oeste 10 Oeste 0 -- -- 72
2017-08-15 23:00:00 23.1 3 Oeste 10 Norte 0 -- -- 70
2017-08-15 22:00:00 23.6 0 Calma 14 Nordeste 0 -- -- 70
2017-08-15 21:00:00 25 5 Este 20 Este 0 -- -- 62
2017-08-15 20:00:00 27 5 Este 15 Este 0 -- -- 63
2017-08-15 19:00:00 27.1 5 Nordeste 13 Este 1 -- -- 57
2017-08-15 18:00:00 31.9 4 Este 26 Nordeste 0 -- -- 32
2017-08-15 17:00:00 33.7 7 Nordeste 23 Nordeste 0 -- -- 33
2017-08-15 16:00:00 33.2 5 Nordeste 20 Nordeste 0 -- -- 33
2017-08-15 15:00:00 31.2 6 Nordeste 27 Nordeste 0 -- -- 35
2017-08-15 14:00:00 29.9 7 Nordeste 28 Este 0 -- -- 39
2017-08-15 13:00:00 29.5 9 Este 23 Este 0 -- -- 43
2017-08-15 12:00:00 28 6 Este 27 Sudeste 0 -- -- 46
2017-08-15 11:00:00 25.5 6 Este 23 Este 0 -- -- 52
2017-08-15 10:00:00 22.8 4 Nordeste 16 Este 0 -- -- 58
2017-08-15 09:00:00 20 3 Este 11 Sur 0 -- -- 64
2017-08-15 08:00:00 18.7 3 Sudeste 14 Este 0 -- -- 67
2017-08-15 07:00:00 18.9 2 Nordeste 11 Este 0 -- -- 68
2017-08-15 06:00:00 18.8 2 Este 9 Este 0 -- -- 67
2017-08-15 05:00:00 19.8 2 Nordeste 7 Norte 0 -- -- 63
2017-08-15 04:00:00 21.3 2 Nordeste 9 Norte 0 -- -- 54
2017-08-15 03:00:00 21.7 0 Calma 12 Nordeste 0 -- -- 55
2017-08-15 02:00:00 23.3 6 Nordeste 18 Norte 0 -- -- 49
2017-08-15 01:00:00 22.8 4 Nordeste 22 Norte 0 -- -- 56
2017-08-15 00:00:00 24.9 6 Este 21 Nordeste 0.4 -- -- 51
2017-08-14 23:00:00 26.8 10 Nordeste 19 Nordeste 0 -- -- 47
2017-08-14 22:00:00 27.5 6 Nordeste 23 Este 0 -- -- 47
2017-08-14 21:00:00 29.3 6 Este 20 Sudeste 0 -- -- 40
2017-08-14 20:00:00 31.1 7 Este 21 Este 0 -- -- 36
2017-08-14 19:00:00 32.8 6 Este 32 Este 0 -- -- 35
2017-08-14 18:00:00 33.8 8 Este 22 Este 0 -- -- 34
2017-08-14 17:00:00 34.1 9 Este 25 Este 0 -- -- 34
2017-08-14 16:00:00 33.7 8 Este 28 Norte 0 -- -- 34
2017-08-14 15:00:00 32.9 8 Este 26 Nordeste 0 -- -- 35
2017-08-14 14:00:00 31.6 8 Este 27 Sudeste 0 -- -- 37
2017-08-14 13:00:00 29.7 10 Nordeste 23 Norte 0 -- -- 40
2017-08-14 12:00:00 27.9 8 Este 27 Este 0 -- -- 46
2017-08-14 11:00:00 25.8 7 Nordeste 23 Nordeste 0 -- -- 50
2017-08-14 10:00:00 23.3 5 Este 18 Nordeste 0 -- -- 57
2017-08-14 09:00:00 19.7 4 Este 13 Este 0 -- -- 70
2017-08-14 08:00:00 18.3 2 Este 9 Este 0 -- -- 75
2017-08-14 07:00:00 18.7 3 Nordeste 9 Nordeste 0 -- -- 73
2017-08-14 06:00:00 19 3 Este 10 Este 0 -- -- 73
2017-08-14 05:00:00 19.6 4 Este 17 Nordeste 0 -- -- 73
2017-08-14 04:00:00 20.9 3 Este 22 Este 0 -- -- 68
2017-08-14 03:00:00 21.9 6 Este 28 Este 0 -- -- 66
2017-08-14 02:00:00 22.5 6 Este 20 Nordeste 0 -- -- 64
2017-08-14 01:00:00 22.3 4 Nordeste 15 Este 0 -- -- 59
2017-08-14 00:00:00 22.9 2 Nordeste 9 Norte 0 -- -- 53
2017-08-13 23:00:00 24.2 3 Nordeste 8 Norte 0 -- -- 49
2017-08-13 22:00:00 26.6 2 Nordeste 9 Sudeste 0 -- -- 46
2017-08-13 21:00:00 29.1 3 Sur 14 Este 0 -- -- 40
2017-08-13 20:00:00 30.9 4 Este 17 Sudeste 0 -- -- 34
2017-08-13 19:00:00 31.9 4 Nordeste 14 Noroeste 0 -- -- 28
2017-08-13 18:00:00 32.9 3 Sudeste 17 Norte 0 -- -- 30
2017-08-13 17:00:00 33 6 Norte 14 Noroeste 0 -- -- 29
2017-08-13 16:00:00 32.1 5 Norte 12 Sur 0 -- -- 31
2017-08-13 15:00:00 30.8 4 Sur 10 Sudoeste 0 -- -- 39
2017-08-13 14:00:00 28.8 3 Oeste 10 Sudoeste 0 -- -- 46
2017-08-13 13:00:00 26.9 3 Sur 8 Oeste 0 -- -- 48
2017-08-13 12:00:00 23.9 3 Sudeste 8 Este 0 -- -- 54
2017-08-13 11:00:00 20.9 2 Sur 5 Sudoeste 0 -- -- 63
2017-08-13 10:00:00 17.2 2 Sudoeste 4 Nordeste 0 -- -- 73
2017-08-13 09:00:00 13.9 0 Calma 4 Sur 0 -- -- 85
2017-08-13 08:00:00 12.7 0 Calma 3 Nordeste 0 -- -- 87
2017-08-13 07:00:00 12.9 0 Calma 7 Nordeste 0 -- -- 86
2017-08-13 06:00:00 13.4 2 Nordeste 4 Nordeste 0 -- -- 85
2017-08-13 05:00:00 14.5 2 Nordeste 5 Nordeste 0 -- -- 81
2017-08-13 04:00:00 15.9 4 Norte 9 Norte 0 -- -- 79
2017-08-13 03:00:00 16.8 0 Calma 6 Oeste 0 -- -- 76
2017-08-13 02:00:00 17.7 0 Calma 6 Noroeste 0 -- -- 72
2017-08-13 01:00:00 19.2 3 Oeste 11 Oeste 0 -- -- 67
2017-08-13 00:00:00 20.5 2 Oeste 13 Noroeste 0 -- -- 60
2017-08-12 23:00:00 21.8 0 Calma 10 Oeste 0 -- -- 52
2017-08-12 22:00:00 24.1 3 Norte 9 Norte 0 -- -- 44
2017-08-12 21:00:00 26.8 2 Sudoeste 15 Norte 0 -- -- 40
2017-08-12 20:00:00 29.1 8 Norte 22 Oeste 0 -- -- 33
2017-08-12 19:00:00 29.7 4 Oeste 15 Noroeste 0 -- -- 32
2017-08-12 18:00:00 30.5 4 Oeste 19 Sudoeste 0 -- -- 28
2017-08-12 17:00:00 30.4 4 Oeste 15 Sudoeste 0 -- -- 32
2017-08-12 16:00:00 28.8 4 Sudoeste 17 Sudoeste 0 -- -- 35
2017-08-12 15:00:00 27.1 4 Oeste 17 Sudoeste 0 -- -- 38
2017-08-12 14:00:00 25.7 3 Oeste 10 Norte 0 -- -- 44
2017-08-12 13:00:00 23.9 3 Sudoeste 15 Sudoeste 0 -- -- 46
2017-08-12 12:00:00 21.7 5 Norte 9 Norte 0 -- -- 50
2017-08-12 11:00:00 19.4 3 Oeste 9 Sudoeste 0 -- -- 58
2017-08-12 10:00:00 16.4 3 Noroeste 9 Oeste 0 -- -- 71
2017-08-12 09:00:00 12.5 0 Calma 6 Norte 0 -- -- 84
2017-08-12 08:00:00 10.9 0 Calma 4 Sudeste 0 -- -- 85
2017-08-12 07:00:00 11.5 0 Calma 4 Norte 0 -- -- 85
2017-08-12 06:00:00 12.2 2 Sur 5 Sur 0 -- -- 83
2017-08-12 05:00:00 13.2 2 Oeste 13 Oeste 0 -- -- 79
2017-08-12 04:00:00 14 3 Oeste 11 Oeste 0 -- -- 73
2017-08-12 03:00:00 14.5 3 Sudoeste 12 Oeste 0 -- -- 70
2017-08-12 02:00:00 15 5 Oeste 20 Oeste 0 -- -- 69
2017-08-12 01:00:00 15.6 4 Oeste 14 Noroeste 0 -- -- 67
2017-08-12 00:00:00 16.4 3 Oeste 17 Noroeste 0 -- -- 63
2017-08-11 23:00:00 17.7 6 Nordeste 33 Noroeste 0 -- -- 59
2017-08-11 22:00:00 18.6 6 Oeste 26 Nordeste 0 -- -- 55
2017-08-11 21:00:00 20.3 6 Oeste 26 Oeste 0 -- -- 50
2017-08-11 20:00:00 22.2 6 Oeste 36 Norte 0 -- -- 44
2017-08-11 19:00:00 23.3 8 Noroeste 28 Norte 0 -- -- 39
2017-08-11 18:00:00 24.9 6 Noroeste 23 Sudoeste 0 -- -- 37
2017-08-11 17:00:00 25.4 8 Noroeste 30 Oeste 0 -- -- 36
2017-08-11 16:00:00 25.4 8 Noroeste 27 Noroeste 0 -- -- 37
2017-08-11 15:00:00 24.2 9 Oeste 26 Norte 0 -- -- 38
2017-08-11 14:00:00 23.2 9 Oeste 33 Oeste 0 -- -- 41
2017-08-11 13:00:00 22.7 7 Noroeste 37 Noroeste 0 -- -- 44
2017-08-11 12:00:00 21.1 7 Noroeste 27 Norte 0 -- -- 47
2017-08-11 11:00:00 19.2 7 Oeste 23 Noroeste 0 -- -- 54
2017-08-11 10:00:00 17 8 Oeste 29 Noroeste 0 -- -- 61
2017-08-11 09:00:00 14.3 7 Oeste 21 Noroeste 0 -- -- 72
2017-08-11 08:00:00 13.3 4 Oeste 17 Noroeste 0 -- -- 75
2017-08-11 07:00:00 12.9 4 Oeste 14 Oeste 0 -- -- 75
2017-08-11 06:00:00 12.5 3 Oeste 12 Oeste 0 -- -- 77
2017-08-11 05:00:00 12.8 3 Noroeste 15 Oeste 0 -- -- 75
2017-08-11 04:00:00 13.3 4 Oeste 22 Noroeste 0 -- -- 70
2017-08-11 03:00:00 13.4 4 Oeste 19 Sudoeste 0 -- -- 69
2017-08-11 02:00:00 14 6 Oeste 23 Oeste 0 -- -- 67
2017-08-11 01:00:00 14.4 6 Oeste 18 Noroeste 0 -- -- 70
2017-08-11 00:00:00 14.7 3 Oeste 18 Oeste 0 -- -- 68
2017-08-10 23:00:00 15.7 4 Oeste 14 Noroeste 0 -- -- 64
2017-08-10 22:00:00 16.8 4 Noroeste 22 Norte 0 -- -- 62
2017-08-10 21:00:00 17.7 6 Norte 24 Noroeste 0 -- -- 60
2017-08-10 20:00:00 18.9 10 Norte 40 Noroeste 0 -- -- 60
2017-08-10 19:00:00 20 18 Norte 37 Noroeste 0 -- -- 57
2017-08-10 18:00:00 21.5 16 Norte 37 Norte 0 -- -- 52
2017-08-10 17:00:00 22.8 13 Norte 35 Norte 0 -- -- 48
2017-08-10 16:00:00 22.4 8 Noroeste 28 Norte 0 -- -- 50
2017-08-10 15:00:00 20.8 7 Oeste 31 Oeste 0 -- -- 57
2017-08-10 14:00:00 20.4 9 Oeste 24 Noroeste 0 -- -- 56
2017-08-10 13:00:00 19.5 5 Oeste 24 Oeste 0 -- -- 55
2017-08-10 12:00:00 18.5 6 Noroeste 27 Oeste 0 -- -- 57
2017-08-10 11:00:00 18.7 5 Oeste 22 Oeste 0 -- -- 57
2017-08-10 10:00:00 17 5 Oeste 22 Noroeste 0 -- -- 63
2017-08-10 09:00:00 14.7 4 Oeste 13 Noroeste 0 -- -- 72
2017-08-10 08:00:00 13.4 4 Oeste 15 Oeste 0 -- -- 76
2017-08-10 07:00:00 12.8 5 Oeste 18 Noroeste 0 -- -- 78
2017-08-10 06:00:00 12.9 3 Sudoeste 21 Noroeste 0 -- -- 76
2017-08-10 05:00:00 13 4 Oeste 15 Noroeste 0 -- -- 76
2017-08-10 04:00:00 13.1 4 Oeste 15 Noroeste 0 -- -- 75
2017-08-10 03:00:00 13.6 2 Sudoeste 12 Oeste 0 -- -- 74
2017-08-10 02:00:00 14 4 Oeste 14 Sudoeste 0 -- -- 70
2017-08-10 01:00:00 14.3 5 Oeste 16 Noroeste 0 -- -- 67
2017-08-10 00:00:00 14.8 4 Oeste 17 Noroeste 0 -- -- 65
2017-08-09 23:00:00 15.6 5 Norte 24 Noroeste 0 -- -- 61
2017-08-09 22:00:00 16.7 8 Norte 32 Norte 0 -- -- 53
2017-08-09 21:00:00 18.2 14 Norte 35 Noroeste 0 -- -- 47
2017-08-09 20:00:00 20.1 12 Norte 36 Noroeste 0 -- -- 41
2017-08-09 19:00:00 21.2 16 Norte 40 Norte 0 -- -- 37
2017-08-09 18:00:00 21.4 14 Norte 34 Noroeste 0 -- -- 41
2017-08-09 17:00:00 21.9 6 Norte 36 Norte 0 -- -- 42
2017-08-09 16:00:00 22.6 12 Norte 35 Noroeste 0 -- -- 45
2017-08-09 15:00:00 23.6 9 Norte 32 Norte 0 -- -- 44
2017-08-09 14:00:00 21.7 8 Norte 27 Norte 0 -- -- 46
2017-08-09 13:00:00 22 8 Oeste 26 Norte 0 -- -- 47
2017-08-09 12:00:00 20.1 5 Oeste 21 Noroeste 0 -- -- 54
2017-08-09 11:00:00 19.6 5 Noroeste 18 Sudoeste 0 -- -- 56
2017-08-09 10:00:00 16.7 4 Noroeste 17 Oeste 0 -- -- 66
2017-08-09 09:00:00 13.8 2 Oeste 12 Noroeste 0 -- -- 80
2017-08-09 08:00:00 12.4 2 Oeste 10 Sudoeste 0 -- -- 84
2017-08-09 07:00:00 12.2 3 Sur 5 Sur 0 -- -- 85
2017-08-09 06:00:00 13 3 Norte 11 Norte 0 -- -- 80
2017-08-09 05:00:00 13.6 4 Oeste 14 Noroeste 0 -- -- 81
2017-08-09 04:00:00 14.4 3 Oeste 17 Sudoeste 0 -- -- 72
2017-08-09 03:00:00 14.3 6 Sudoeste 17 Oeste 0 -- -- 74
2017-08-09 02:00:00 15.3 3 Noroeste 15 Norte 0 -- -- 68
2017-08-09 01:00:00 15.6 3 Oeste 22 Noroeste 0 -- -- 66
2017-08-09 00:00:00 16.8 3 Nordeste 13 Norte 0 -- -- 62
2017-08-08 23:00:00 17.6 5 Norte 17 Noroeste 0 -- -- 59
2017-08-08 22:00:00 18.8 5 Norte 23 Noroeste 0 -- -- 58
2017-08-08 21:00:00 20.5 8 Norte 21 Noroeste 0 -- -- 51
2017-08-08 20:00:00 21.8 12 Norte 35 Noroeste 0 -- -- 47
2017-08-08 19:00:00 23.1 17 Norte 37 Norte 0 -- -- 47
2017-08-08 18:00:00 25.5 7 Nordeste 37 Norte 0 -- -- 40
2017-08-08 17:00:00 26.5 8 Noroeste 31 Norte 0 -- -- 37
2017-08-08 16:00:00 26.2 7 Noroeste 33 Oeste 0 -- -- 38
2017-08-08 15:00:00 25.7 8 Noroeste 27 Norte 0 -- -- 41
2017-08-08 14:00:00 25.3 7 Oeste 37 Oeste 0 -- -- 45
2017-08-08 13:00:00 24.1 7 Oeste 27 Noroeste 0 -- -- 46
2017-08-08 12:00:00 23 7 Noroeste 27 Noroeste 0 -- -- 47
2017-08-08 11:00:00 21.3 8 Oeste 27 Noroeste 0 -- -- 51
2017-08-08 10:00:00 19.1 6 Oeste 26 Oeste 0 -- -- 60
2017-08-08 09:00:00 17.7 8 Oeste 28 Oeste 0 -- -- 67
2017-08-08 08:00:00 17.1 4 Oeste 16 Noroeste 0 -- -- 75
2017-08-08 07:00:00 17.3 4 Oeste 26 Oeste 0 -- -- 75
2017-08-08 06:00:00 18.1 5 Oeste 18 Norte 0 -- -- 73
2017-08-08 05:00:00 18.6 6 Oeste 20 Noroeste 0 -- -- 73
2017-08-08 04:00:00 19.9 6 Oeste 25 Norte 0 -- -- 65
2017-08-08 03:00:00 20.7 7 Norte 23 Noroeste 0 -- -- 66
2017-08-08 02:00:00 21.8 5 Oeste 28 Noroeste 0 -- -- 66
2017-08-08 01:00:00 23.4 6 Oeste 19 Oeste 0 -- -- 64
2017-08-08 00:00:00 25.5 5 Sur 26 Norte 0 -- -- 66
2017-08-07 23:00:00 26.7 5 Norte 23 Sudeste 0 -- -- 65
2017-08-07 22:00:00 28 6 Este 28 Este 0 -- -- 61
2017-08-07 21:00:00 29.4 9 Este 28 Nordeste 0 -- -- 55
2017-08-07 20:00:00 30.6 10 Este 33 Nordeste 0 -- -- 52
2017-08-07 19:00:00 31.5 9 Este 37 Este 0 -- -- 49
2017-08-07 18:00:00 32 10 Este 29 Este 0 -- -- 48
2017-08-07 17:00:00 32.7 9 Este 29 Este 0 -- -- 46
2017-08-07 16:00:00 33.2 8 Este 24 Sudeste 0 -- -- 46
2017-08-07 15:00:00 32.4 9 Nordeste 27 Norte 0 -- -- 49
2017-08-07 14:00:00 31.1 6 Este 21 Nordeste 0 -- -- 54
2017-08-07 13:00:00 29.6 4 Sudeste 11 Sudeste 0 -- -- 55
2017-08-07 12:00:00 25.9 5 Sudoeste 12 Sudoeste 0 -- -- 64
2017-08-07 11:00:00 23.5 3 Sudoeste 6 Sur 0 -- -- 65
2017-08-07 10:00:00 21.2 3 Sudoeste 8 Norte 0 -- -- 69
2017-08-07 09:00:00 19.4 2 Sur 8 Sudoeste 0 -- -- 76
2017-08-07 08:00:00 19 0 Calma 4 Sudoeste 0 -- -- 75
2017-08-07 07:00:00 18.7 0 Calma 6 Norte 0 -- -- 76
2017-08-07 06:00:00 18.4 0 Calma 8 Noroeste 0 -- -- 77
2017-08-07 05:00:00 18.8 2 Oeste 8 Oeste 0 -- -- 76
2017-08-07 04:00:00 19.8 2 Oeste 9 Oeste 0 -- -- 69
2017-08-07 03:00:00 20.1 2 Oeste 17 Sudoeste 0 -- -- 69
2017-08-07 02:00:00 20.5 3 Sudoeste 9 Norte 0 -- -- 67
2017-08-07 01:00:00 21.2 3 Sudoeste 11 Sudoeste 0 -- -- 65
2017-08-07 00:00:00 22.1 3 Oeste 11 Oeste 0 -- -- 62
2017-08-06 23:00:00 23.1 3 Sudoeste 7 Sur 0 -- -- 60
2017-08-06 22:00:00 24.5 2 Sudoeste 6 Sudoeste 0 -- -- 55
2017-08-06 21:00:00 26.6 3 Oeste 13 Noroeste 0 -- -- 50
2017-08-06 20:00:00 28.2 3 Oeste 13 Norte 0 -- -- 45
2017-08-06 19:00:00 28.6 3 Oeste 13 Sudoeste 0 -- -- 44
2017-08-06 18:00:00 29.4 4 Oeste 14 Norte 0 -- -- 42
2017-08-06 17:00:00 29 6 Oeste 16 Sudoeste 0 -- -- 42
2017-08-06 16:00:00 28.7 6 Sudoeste 16 Sudoeste 0 -- -- 43
2017-08-06 15:00:00 27.5 4 Sudoeste 14 Oeste 0 -- -- 48
2017-08-06 14:00:00 26.2 5 Oeste 16 Sudoeste 0 -- -- 50
2017-08-06 13:00:00 24.6 5 Oeste 20 Noroeste 0 -- -- 50
2017-08-06 12:00:00 22.4 5 Oeste 21 Oeste 0 -- -- 53
2017-08-06 11:00:00 20.1 4 Oeste 18 Oeste 0 -- -- 59
2017-08-06 10:00:00 18 4 Oeste 17 Noroeste 0 -- -- 67
2017-08-06 09:00:00 16.5 4 Oeste 15 Noroeste 0 -- -- 71
2017-08-06 08:00:00 16.3 4 Oeste 18 Noroeste 0 -- -- 71
2017-08-06 07:00:00 16.4 5 Oeste 22 Noroeste 0 -- -- 70
2017-08-06 06:00:00 16.2 4 Oeste 19 Noroeste 0 -- -- 74
2017-08-06 05:00:00 16.3 6 Oeste 26 Oeste 0 -- -- 79
2017-08-06 04:00:00 17.2 5 Oeste 25 Noroeste 0 -- -- 78
2017-08-06 03:00:00 17.8 6 Oeste 24 Sudoeste 0 -- -- 78
2017-08-06 02:00:00 17.9 5 Oeste 25 Noroeste 0 -- -- 81
2017-08-06 01:00:00 18.1 4 Oeste 22 Oeste 0 -- -- 79
2017-08-06 00:00:00 18.4 5 Sudoeste 32 Oeste 0.2 -- -- 80
2017-08-05 23:00:00 20.5 6 Oeste 19 Sudoeste 0 -- -- 64
2017-08-05 22:00:00 21.8 5 Oeste 21 Oeste 0 -- -- 62
2017-08-05 21:00:00 23.3 6 Oeste 28 Noroeste 0 -- -- 58
2017-08-05 20:00:00 25.8 6 Oeste 27 Noroeste 0 -- -- 54
2017-08-05 19:00:00 27.8 10 Oeste 30 Oeste 0 -- -- 51
2017-08-05 18:00:00 30.6 8 Oeste 31 Noroeste 0 -- -- 46
2017-08-05 17:00:00 32.1 9 Oeste 28 Noroeste 0 -- -- 46
2017-08-05 16:00:00 32.5 8 Oeste 31 Noroeste 0 -- -- 46
2017-08-05 15:00:00 32.4 6 Oeste 23 Noroeste 0 -- -- 46
2017-08-05 14:00:00 31.9 5 Oeste 21 Noroeste 0 -- -- 48
2017-08-05 13:00:00 31.2 6 Oeste 19 Oeste 0 -- -- 52
2017-08-05 12:00:00 29.7 5 Oeste 18 Noroeste 0 -- -- 54
2017-08-05 11:00:00 27.3 3 Oeste 15 Noroeste 0 -- -- 60
2017-08-05 10:00:00 24.7 3 Oeste 12 Oeste 0 -- -- 70
2017-08-05 09:00:00 22 3 Sudoeste 11 Sur 0 -- -- 79
2017-08-05 08:00:00 21 0 Calma 5 Sudoeste 0 -- -- 81
2017-08-05 07:00:00 21 0 Calma 5 Sudoeste 0 -- -- 82
2017-08-05 06:00:00 21.2 2 Sudoeste 9 Sudoeste 0 -- -- 80
2017-08-05 05:00:00 21.7 4 Sudoeste 12 Sudoeste 0 -- -- 79
2017-08-05 04:00:00 23.1 2 Sudoeste 9 Sur 0 -- -- 71
2017-08-05 03:00:00 24 2 Oeste 10 Oeste 0 -- -- 68
2017-08-05 02:00:00 24.9 0 Calma 10 Sudoeste 0 -- -- 64
2017-08-05 01:00:00 25.5 3 Oeste 10 Sudoeste 0 -- -- 62
2017-08-05 00:00:00 26.7 3 Sudoeste 13 Noroeste 0 -- -- 57
2017-08-04 23:00:00 28.4 3 Sudoeste 8 Noroeste 0 -- -- 51
2017-08-04 22:00:00 30.7 0 Calma 7 Noroeste 0 -- -- 44
2017-08-04 21:00:00 32.9 4 Norte 17 Norte 0 -- -- 40
2017-08-04 20:00:00 34.7 7 Norte 23 Noroeste 0 -- -- 36
2017-08-04 19:00:00 35.8 4 Oeste 21 Noroeste 0 -- -- 35
2017-08-04 18:00:00 37.1 4 Noroeste 19 Norte 0 -- -- 32
2017-08-04 17:00:00 36.9 7 Norte 19 Norte 0 -- -- 31
2017-08-04 16:00:00 36.4 5 Oeste 17 Norte 0 -- -- 32
2017-08-04 15:00:00 35.6 8 Norte 18 Noroeste 0 -- -- 33
2017-08-04 14:00:00 34.1 5 Noroeste 19 Norte 0 -- -- 38
2017-08-04 13:00:00 32.6 5 Oeste 18 Sudoeste 0 -- -- 40
2017-08-04 12:00:00 29.3 4 Sudoeste 16 Sudoeste 0 -- -- 54
2017-08-04 11:00:00 26.9 4 Oeste 11 Noroeste 0 -- -- 60
2017-08-04 10:00:00 24.1 3 Oeste 9 Sudoeste 0 -- -- 72
2017-08-04 09:00:00 20.6 2 Oeste 6 Noroeste 0 -- -- 83
2017-08-04 08:00:00 19.6 0 Calma 5 Sudoeste 0 -- -- 85
2017-08-04 07:00:00 19.5 0 Calma 4 Sudoeste 0 -- -- 86
2017-08-04 06:00:00 20.1 0 Calma 7 Oeste 0 -- -- 84
2017-08-04 05:00:00 20.8 0 Calma 10 Oeste 0 -- -- 83
2017-08-04 04:00:00 21.9 2 Oeste 9 Oeste 0 -- -- 76
2017-08-04 03:00:00 22.8 0 Calma 9 Noroeste 0 -- -- 74
2017-08-04 02:00:00 23.4 3 Sudoeste 10 Sudoeste 0 -- -- 72
2017-08-04 01:00:00 24.7 3 Sudoeste 14 Noroeste 0 -- -- 67
2017-08-04 00:00:00 26.5 4 Oeste 14 Oeste 0 -- -- 60
2017-08-03 23:00:00 27.9 0 Calma 10 Norte 0 -- -- 51
2017-08-03 22:00:00 30.9 6 Norte 13 Noroeste 0 -- -- 40
2017-08-03 21:00:00 32.2 0 Calma 3 Sudeste 0 -- -- 35
2017-08-03 20:00:00 34.8 0 Calma 9 Norte 0 -- -- 33
2017-08-03 19:00:00 36.2 0 Calma 8 Sur 0 -- -- 29
2017-08-03 18:00:00 37.8 2 Norte 12 Norte 0 -- -- 22
2017-08-03 17:00:00 38.2 6 Nordeste 12 Noroeste 0 -- -- 24
2017-08-03 16:00:00 37.6 4 Norte 12 Norte 0 -- -- 23
2017-08-03 15:00:00 36.5 4 Norte 13 Norte 0 -- -- 25
2017-08-03 14:00:00 34.9 3 Sur 10 Sur 0 -- -- 37
2017-08-03 13:00:00 33.2 4 Sudoeste 12 Sudoeste 0 -- -- 39
2017-08-03 12:00:00 31.4 3 Noroeste 9 Oeste 0 -- -- 44
2017-08-03 11:00:00 28.9 3 Oeste 6 Sudoeste 0 -- -- 56
2017-08-03 10:00:00 25.9 3 Sudoeste 5 Sudoeste 0 -- -- 62
2017-08-03 09:00:00 22.8 2 Sudoeste 6 Sudoeste 0 -- -- 70
2017-08-03 08:00:00 22.2 0 Calma 6 Este 0 -- -- 71
2017-08-03 07:00:00 22.4 0 Calma 9 Nordeste 0 -- -- 67
2017-08-03 06:00:00 22.9 3 Nordeste 14 Nordeste 0 -- -- 65
2017-08-03 05:00:00 23.3 4 Nordeste 15 Este 0 -- -- 67
2017-08-03 04:00:00 23.7 5 Nordeste 18 Este 0 -- -- 65
2017-08-03 03:00:00 24.8 5 Nordeste 19 Nordeste 0 -- -- 61
2017-08-03 02:00:00 25.7 5 Este 17 Nordeste 0 -- -- 58
2017-08-03 01:00:00 26.1 4 Este 17 Nordeste 0 -- -- 57
2017-08-03 00:00:00 26.6 5 Nordeste 13 Nordeste 0 -- -- 50
2017-08-02 23:00:00 27.9 4 Nordeste 14 Nordeste 0 -- -- 44
2017-08-02 22:00:00 30 4 Nordeste 17 Este 0 -- -- 39
2017-08-02 21:00:00 32.2 5 Este 23 Sudeste 0 -- -- 33
2017-08-02 20:00:00 33.3 8 Sudeste 26 Este 0 -- -- 33
2017-08-02 19:00:00 34.8 9 Sudeste 31 Sudeste 0 -- -- 30
2017-08-02 18:00:00 35.9 8 Sur 22 Sudoeste 0 -- -- 24
2017-08-02 17:00:00 35.7 7 Sur 23 Sudoeste 0 -- -- 29
2017-08-02 16:00:00 34.4 4 Sudeste 15 Sudoeste 0 -- -- 29
2017-08-02 15:00:00 32.8 5 Sudoeste 28 Sudoeste 0 -- -- 37
2017-08-02 14:00:00 31.2 12 Sudoeste 28 Sudoeste 0 -- -- 40
2017-08-02 13:00:00 30.6 3 Sudoeste 14 Sudoeste 0 -- -- 54
2017-08-02 12:00:00 28.3 6 Sudoeste 13 Oeste 0 -- -- 59
2017-08-02 11:00:00 26 3 Este 5 Nordeste 0 -- -- 65
2017-08-02 10:00:00 22.3 0 Calma 10 Noroeste 0 -- -- 72
2017-08-02 09:00:00 19.6 6 Norte 12 Norte 0 -- -- 79
2017-08-02 08:00:00 18.4 3 Sudoeste 6 Sudoeste 0 -- -- 83
2017-08-02 07:00:00 18.3 0 Calma 7 Noroeste 0 -- -- 82
2017-08-02 06:00:00 18.3 0 Calma 8 Noroeste 0 -- -- 83
2017-08-02 05:00:00 18.7 2 Sudoeste 7 Oeste 0 -- -- 84
2017-08-02 04:00:00 19.8 0 Calma 6 Noroeste 0 -- -- 77
2017-08-02 03:00:00 20.7 0 Calma 4 Sur 0 -- -- 76
2017-08-02 02:00:00 21.9 0 Calma 4 Sudoeste 0 -- -- 75
2017-08-02 01:00:00 23.3 0 Calma 5 Sudeste 0 -- -- 70
2017-08-02 00:00:00 24.7 3 Nordeste 10 Norte 0 -- -- 68
2017-08-01 23:00:00 25.8 2 Este 12 Nordeste 0 -- -- 59
2017-08-01 22:00:00 27.8 2 Sudeste 9 Sudoeste 0 -- -- 55
2017-08-01 21:00:00 30.1 3 Nordeste 16 Sudeste 0 -- -- 50
2017-08-01 20:00:00 31.2 4 Este 19 Nordeste 0 -- -- 47
2017-08-01 19:00:00 32.5 4 Nordeste 13 Este 0 -- -- 40
2017-08-01 18:00:00 33.1 3 Este 13 Nordeste 0 -- -- 40
2017-08-01 17:00:00 32.9 4 Norte 13 Noroeste 0 -- -- 42
2017-08-01 16:00:00 31.8 4 Sudoeste 17 Sudoeste 0 -- -- 46
2017-08-01 15:00:00 30.5 3 Este 11 Sudoeste 0 -- -- 49
2017-08-01 14:00:00 28.8 5 Sudoeste 9 Sudoeste 0 -- -- 56
2017-08-01 13:00:00 27.3 4 Este 10 Sudoeste 0 -- -- 55
2017-08-01 12:00:00 24.7 3 Sudoeste 12 Sudoeste 0 -- -- 62
2017-08-01 11:00:00 22.3 4 Sudoeste 12 Sudoeste 0 -- -- 67
2017-08-01 10:00:00 20.3 2 Oeste 9 Noroeste 0 -- -- 73
2017-08-01 09:00:00 19.2 2 Oeste 9 Sudoeste 0 -- -- 75
2017-08-01 08:00:00 18.4 4 Sudoeste 10 Sudoeste 0 -- -- 78
2017-08-01 07:00:00 18.3 0 Calma 7 Sudoeste 0 -- -- 77
2017-08-01 06:00:00 18.3 3 Oeste 10 Noroeste 0 -- -- 77
2017-08-01 05:00:00 18.7 2 Sudoeste 9 Oeste 0 -- -- 78
2017-08-01 04:00:00 19.3 2 Sudoeste 10 Norte 0 -- -- 72
2017-08-01 03:00:00 19.6 3 Sudoeste 11 Sudoeste 0 -- -- 74
2017-08-01 02:00:00 20.4 4 Oeste 13 Oeste 0 -- -- 72
2017-08-01 01:00:00 21.2 4 Oeste 24 Noroeste 0 -- -- 70
2017-08-01 00:00:00 22.6 6 Oeste 25 Noroeste 0 -- -- 66
2017-07-31 23:00:00 26.1 6 Noroeste 20 Noroeste 0 -- -- 57
2017-07-31 22:00:00 30.3 10 Norte 18 Norte 0 -- -- 47
2017-07-31 21:00:00 32.7 3 Nordeste 14 Nordeste 0 -- -- 43
2017-07-31 20:00:00 33.2 6 Este 22 Este 0 -- -- 42
2017-07-31 19:00:00 34.2 6 Este 21 Nordeste 0 -- -- 43
2017-07-31 18:00:00 35.1 6 Este 23 Este 0 -- -- 40
2017-07-31 17:00:00 34.8 8 Este 28 Nordeste 0 -- -- 40
2017-07-31 16:00:00 34.1 7 Este 24 Este 0 -- -- 42
2017-07-31 15:00:00 32.6 5 Este 17 Este 0 -- -- 48
2017-07-31 14:00:00 30.2 3 Sur 16 Sudoeste 0 -- -- 55
2017-07-31 13:00:00 27.1 4 Sur 14 Sudoeste 0 -- -- 57
2017-07-31 12:00:00 24.6 4 Sudoeste 14 Sudoeste 0 -- -- 63
2017-07-31 11:00:00 21.6 3 Sudoeste 9 Oeste 0 -- -- 68
2017-07-31 10:00:00 19.9 2 Oeste 6 Sudoeste 0 -- -- 74
2017-07-31 09:00:00 19.3 2 Noroeste 6 Noroeste 0 -- -- 75
2017-07-31 08:00:00 17.8 2 Oeste 6 Noroeste 0 -- -- 80
2017-07-31 07:00:00 17.5 2 Oeste 6 Noroeste 0 -- -- 81
2017-07-31 06:00:00 17.7 2 Sudoeste 10 Sudoeste 0 -- -- 82
2017-07-31 05:00:00 18.2 3 Sudoeste 14 Sudoeste 0 -- -- 81
2017-07-31 04:00:00 18.9 3 Sudoeste 12 Sur 0 -- -- 76
2017-07-31 03:00:00 19.6 2 Sudoeste 14 Sudoeste 0 -- -- 74
2017-07-31 02:00:00 20.1 4 Sudoeste 13 Sudoeste 0 -- -- 72
2017-07-31 01:00:00 21.5 4 Oeste 17 Noroeste 0 -- -- 69
2017-07-31 00:00:00 23.1 5 Oeste 18 Oeste 0 -- -- 65
2017-07-30 23:00:00 25.6 5 Oeste 17 Noroeste 0 -- -- 60
2017-07-30 22:00:00 29.7 4 Oeste 15 Sudoeste 0 -- -- 51
2017-07-30 21:00:00 33.3 4 Norte 11 Nordeste 0 -- -- 40
2017-07-30 20:00:00 34.9 5 Nordeste 13 Este 0 -- -- 37
2017-07-30 19:00:00 35.9 3 Sudeste 9 Sudeste 0 -- -- 35
2017-07-30 18:00:00 37.6 3 Nordeste 10 Sudoeste 0 -- -- 27
2017-07-30 17:00:00 37.9 7 Sudoeste 19 Sudoeste 0 -- -- 25
2017-07-30 16:00:00 37 4 Este 10 Nordeste 0 -- -- 30
2017-07-30 15:00:00 35.5 4 Este 10 Sudeste 0 -- -- 37
2017-07-30 14:00:00 34.2 4 Sur 14 Sur 0 -- -- 39
2017-07-30 13:00:00 32.2 3 Sur 8 Este 0 -- -- 49
2017-07-30 12:00:00 30.3 2 Este 13 Sudoeste 0 -- -- 54
2017-07-30 11:00:00 28.7 3 Sudoeste 12 Sudoeste 0 -- -- 61
2017-07-30 10:00:00 26.8 3 Este 9 Nordeste 0 -- -- 65
2017-07-30 09:00:00 24 3 Nordeste 11 Nordeste 0 -- -- 69
2017-07-30 08:00:00 22.6 2 Nordeste 6 Nordeste 0 -- -- 76
2017-07-30 07:00:00 22.2 0 Calma 8 Este 0 -- -- 78
2017-07-30 06:00:00 22.7 0 Calma 12 Nordeste 0 -- -- 78
2017-07-30 05:00:00 23.2 4 Nordeste 16 Este 0 -- -- 79
2017-07-30 04:00:00 24.3 5 Nordeste 23 Norte 0 -- -- 75
2017-07-30 03:00:00 24.8 4 Este 15 Nordeste 0 -- -- 73
2017-07-30 02:00:00 25.7 5 Nordeste 15 Nordeste 0 -- -- 68
2017-07-30 01:00:00 26.8 3 Nordeste 10 Nordeste 0 -- -- 63
2017-07-30 00:00:00 27.9 3 Nordeste 9 Nordeste 0 -- -- 60
2017-07-29 23:00:00 29 0 Calma 8 Nordeste 0 -- -- 57
2017-07-29 22:00:00 30.9 2 Nordeste 6 Este 0 -- -- 50
2017-07-29 21:00:00 33.2 3 Nordeste 14 Sudeste 0 -- -- 41
2017-07-29 20:00:00 34.8 4 Este 12 Este 0 -- -- 38
2017-07-29 19:00:00 35.8 4 Nordeste 12 Nordeste 0 -- -- 32
2017-07-29 18:00:00 36.1 5 Nordeste 16 Nordeste 0 -- -- 30
2017-07-29 17:00:00 36 4 Nordeste 15 Norte 0 -- -- 37
2017-07-29 16:00:00 34.7 5 Nordeste 17 Norte 0 -- -- 41
2017-07-29 15:00:00 33.1 6 Este 18 Sudeste 0 -- -- 49
2017-07-29 14:00:00 31.7 6 Este 19 Norte 0 -- -- 51
2017-07-29 13:00:00 30.5 5 Este 26 Este 0 -- -- 56
2017-07-29 12:00:00 28.5 7 Este 21 Nordeste 0 -- -- 60
2017-07-29 11:00:00 27 6 Nordeste 21 Sudeste 0 -- -- 63
2017-07-29 10:00:00 24.9 5 Nordeste 17 Este 0 -- -- 68
2017-07-29 09:00:00 19.9 2 Nordeste 6 Norte 0 -- -- 75
2017-07-29 08:00:00 17.7 0 Calma 3 Sudoeste 0 -- -- 84
2017-07-29 07:00:00 17.4 0 Calma 5 Nordeste 0 -- -- 82
2017-07-29 06:00:00 17.7 0 Calma 6 Nordeste 0 -- -- 77
2017-07-29 05:00:00 18.8 0 Calma 5 Nordeste 0 -- -- 71
2017-07-29 04:00:00 19.8 0 Calma 6 Norte 0 -- -- 64
2017-07-29 03:00:00 21 2 Sudoeste 8 Norte 0 -- -- 57
2017-07-29 02:00:00 22.1 2 Sudoeste 8 Noroeste 0 -- -- 54
2017-07-29 01:00:00 23.4 0 Calma 8 Oeste 0 -- -- 44
2017-07-29 00:00:00 24.4 2 Oeste 10 Noroeste 0 -- -- 36
2017-07-28 23:00:00 26 0 Calma 13 Noroeste 0 -- -- 41
2017-07-28 22:00:00 28.8 7 Norte 20 Norte 0 -- -- 37
2017-07-28 21:00:00 31.9 3 Oeste 9 Noroeste 0 -- -- 41
2017-07-28 20:00:00 33.7 2 Sudoeste 8 Oeste 0 -- -- 32
2017-07-28 19:00:00 34.5 3 Oeste 14 Noroeste 0 -- -- 31
2017-07-28 18:00:00 35.5 3 Oeste 12 Norte 0 -- -- 29
2017-07-28 17:00:00 35.5 4 Oeste 14 Noroeste 0 -- -- 29
2017-07-28 16:00:00 34.6 3 Nordeste 9 Nordeste 0 -- -- 40
2017-07-28 15:00:00 33 4 Norte 11 Sudoeste 0 -- -- 40
2017-07-28 14:00:00 31.4 3 Sudoeste 13 Sur 0 -- -- 44
2017-07-28 13:00:00 29.6 4 Sudoeste 11 Sudoeste 0 -- -- 49
2017-07-28 12:00:00 27.7 3 Sudoeste 8 Sudoeste 0 -- -- 57
2017-07-28 11:00:00 25.3 3 Oeste 11 Noroeste 0 -- -- 65
2017-07-28 10:00:00 22.2 3 Oeste 10 Oeste 0 -- -- 75
2017-07-28 09:00:00 19 2 Oeste 5 Sudoeste 0 -- -- 86
2017-07-28 08:00:00 18 0 Calma 5 Norte 0 -- -- 89
2017-07-28 07:00:00 17.9 0 Calma 5 Sudoeste 0 -- -- 88
2017-07-28 06:00:00 18.5 0 Calma 6 Noroeste 0 -- -- 86
2017-07-28 05:00:00 19.1 2 Oeste 8 Sudoeste 0 -- -- 84
2017-07-28 04:00:00 19.8 4 Sudoeste 12 Sudoeste 0 -- -- 78
2017-07-28 03:00:00 20.6 4 Sudoeste 11 Sudoeste 0 -- -- 75
2017-07-28 02:00:00 21.7 2 Oeste 10 Sudoeste 0 -- -- 69
2017-07-28 01:00:00 22.8 3 Oeste 12 Oeste 0 -- -- 64
2017-07-28 00:00:00 23.8 2 Sudoeste 9 Oeste 0 -- -- 61
2017-07-27 23:00:00 25.4 0 Calma 12 Sudoeste 0 -- -- 55
2017-07-27 22:00:00 28.6 4 Norte 12 Norte 0 -- -- 40
2017-07-27 21:00:00 31.4 5 Norte 17 Noroeste 0 -- -- 36
2017-07-27 20:00:00 33.6 5 Noroeste 15 Norte 0 -- -- 30
2017-07-27 19:00:00 34.3 3 Oeste 11 Noroeste 0 -- -- 28
2017-07-27 18:00:00 35.3 4 Noroeste 16 Norte 0 -- -- 26
2017-07-27 17:00:00 35.6 5 Norte 19 Norte 0 -- -- 27
2017-07-27 16:00:00 34.5 4 Oeste 12 Norte 0 -- -- 28
2017-07-27 15:00:00 33 5 Sudoeste 13 Sudoeste 0 -- -- 32
2017-07-27 14:00:00 32 4 Sudoeste 12 Sudoeste 0 -- -- 30
2017-07-27 13:00:00 30 5 Sudoeste 15 Sudoeste 0 -- -- 34
2017-07-27 12:00:00 27.7 4 Oeste 12 Noroeste 0 -- -- 42
2017-07-27 11:00:00 24.8 2 Oeste 14 Sudoeste 0 -- -- 52
2017-07-27 10:00:00 21.6 5 Sudoeste 12 Sudoeste 0 -- -- 62
2017-07-27 09:00:00 17.8 4 Sudoeste 12 Sur 0 -- -- 79
2017-07-27 08:00:00 15.5 2 Sudoeste 4 Sudoeste 0 -- -- 83
2017-07-27 07:00:00 15.7 0 Calma 3 Oeste 0 -- -- 82
2017-07-27 06:00:00 16.4 0 Calma 6 Noroeste 0 -- -- 78
2017-07-27 05:00:00 17.2 0 Calma 12 Noroeste 0 -- -- 80
2017-07-27 04:00:00 18 0 Calma 7 Sudoeste 0 -- -- 75
2017-07-27 03:00:00 18.6 2 Oeste 9 Oeste 0 -- -- 75
2017-07-27 02:00:00 19.1 3 Sudoeste 9 Sudoeste 0 -- -- 72
2017-07-27 01:00:00 20.6 2 Nordeste 13 Norte 0 -- -- 66
2017-07-27 00:00:00 21.6 2 Oeste 13 Oeste 0 -- -- 62
2017-07-26 23:00:00 22.6 3 Sudoeste 11 Oeste 0 -- -- 59
2017-07-26 22:00:00 24.4 2 Sudoeste 11 Norte 0 -- -- 52
2017-07-26 21:00:00 26.6 6 Norte 30 Norte 0 -- -- 44
2017-07-26 20:00:00 28.4 11 Norte 27 Norte 0 -- -- 42
2017-07-26 19:00:00 29.5 7 Norte 23 Noroeste 0 -- -- 40
2017-07-26 18:00:00 30.4 6 Noroeste 27 Noroeste 0 -- -- 38
2017-07-26 17:00:00 30.6 8 Oeste 30 Noroeste 0 -- -- 37
2017-07-26 16:00:00 30.4 6 Noroeste 25 Noroeste 0 -- -- 39
2017-07-26 15:00:00 28.9 6 Noroeste 24 Norte 0 -- -- 42
2017-07-26 14:00:00 27.2 6 Oeste 22 Sudoeste 0 -- -- 45
2017-07-26 13:00:00 25.5 6 Oeste 21 Sudoeste 0 -- -- 50
2017-07-26 12:00:00 23.6 5 Oeste 22 Norte 0 -- -- 54
2017-07-26 11:00:00 22.3 6 Noroeste 25 Oeste 0 -- -- 55
2017-07-26 10:00:00 19.7 5 Noroeste 24 Oeste 0 -- -- 62
2017-07-26 09:00:00 16.8 6 Oeste 21 Oeste 0 -- -- 72
2017-07-26 08:00:00 15 4 Oeste 21 Noroeste 0 -- -- 77
2017-07-26 07:00:00 14.8 4 Sudoeste 19 Oeste 0 -- -- 76
2017-07-26 06:00:00 14.8 6 Oeste 21 Noroeste 0 -- -- 76
2017-07-26 05:00:00 15.1 4 Sudoeste 27 Noroeste 0 -- -- 76
2017-07-26 04:00:00 15.8 7 Oeste 29 Noroeste 0 -- -- 72
2017-07-26 03:00:00 16 5 Oeste 19 Noroeste 0 -- -- 71
2017-07-26 02:00:00 16.4 6 Oeste 26 Noroeste 0 -- -- 69
2017-07-26 01:00:00 16.9 9 Oeste 25 Oeste 0 -- -- 69
2017-07-26 00:00:00 17.3 6 Oeste 28 Oeste 0 -- -- 68
2017-07-25 23:00:00 17.9 6 Oeste 25 Noroeste 0 -- -- 64
2017-07-25 22:00:00 19.2 8 Oeste 34 Noroeste 0 -- -- 58
2017-07-25 21:00:00 20.6 9 Noroeste 29 Oeste 0 -- -- 53
2017-07-25 20:00:00 22.2 7 Oeste 30 Oeste 0 -- -- 49
2017-07-25 19:00:00 23.4 11 Oeste 36 Oeste 0 -- -- 48
2017-07-25 18:00:00 24.5 9 Oeste 34 Noroeste 0 -- -- 45
2017-07-25 17:00:00 25.5 10 Noroeste 32 Oeste 0 -- -- 44
2017-07-25 16:00:00 25.9 8 Norte 38 Oeste 0 -- -- 44
2017-07-25 15:00:00 24.5 9 Oeste 34 Noroeste 0 -- -- 49
2017-07-25 14:00:00 24.1 10 Oeste 33 Noroeste 0 -- -- 53
2017-07-25 13:00:00 23.8 9 Oeste 33 Oeste 0 -- -- 51
2017-07-25 12:00:00 23.4 8 Noroeste 34 Noroeste 0 -- -- 50
2017-07-25 11:00:00 22 7 Oeste 28 Sudoeste 0 -- -- 53
2017-07-25 10:00:00 19.9 6 Oeste 29 Oeste 0 -- -- 63
2017-07-25 09:00:00 17.4 6 Oeste 25 Oeste 0 -- -- 70
2017-07-25 08:00:00 15.9 5 Noroeste 18 Noroeste 0 -- -- 74
2017-07-25 07:00:00 15.5 5 Oeste 25 Oeste 0 -- -- 77
2017-07-25 06:00:00 15.5 4 Oeste 27 Noroeste 0 -- -- 79
2017-07-25 05:00:00 16.4 5 Oeste 24 Noroeste 0 -- -- 77
2017-07-25 04:00:00 16.9 5 Oeste 23 Oeste 0 -- -- 74
2017-07-25 03:00:00 17.2 7 Oeste 27 Oeste 0 -- -- 71
2017-07-25 02:00:00 17.4 8 Oeste 26 Oeste 0 -- -- 70
2017-07-25 01:00:00 17.8 5 Noroeste 21 Oeste 0 -- -- 70
2017-07-25 00:00:00 18.3 5 Oeste 25 Norte 0 -- -- 70
2017-07-24 23:00:00 19.1 6 Norte 17 Norte 0 -- -- 68
2017-07-24 22:00:00 20.2 4 Sudoeste 23 Oeste 0 -- -- 64
2017-07-24 21:00:00 21.6 6 Noroeste 30 Noroeste 0 -- -- 59
2017-07-24 20:00:00 23.1 6 Noroeste 29 Norte 0 -- -- 55
2017-07-24 19:00:00 24.6 8 Noroeste 34 Noroeste 0 -- -- 51
2017-07-24 18:00:00 26.2 8 Noroeste 31 Norte 0 -- -- 46
2017-07-24 17:00:00 27.1 12 Norte 41 Sudoeste 0 -- -- 44
2017-07-24 16:00:00 27 12 Norte 35 Norte 0 -- -- 45
2017-07-24 15:00:00 27.3 12 Noroeste 36 Noroeste 0 -- -- 45
2017-07-24 14:00:00 26.9 7 Noroeste 32 Sudoeste 0 -- -- 46
2017-07-24 13:00:00 26.4 9 Noroeste 42 Norte 0 -- -- 49
2017-07-24 12:00:00 25.1 9 Noroeste 36 Norte 0 -- -- 51
2017-07-24 11:00:00 23.7 8 Noroeste 29 Noroeste 0 -- -- 59
2017-07-24 10:00:00 22.7 5 Norte 24 Norte 0 -- -- 65
2017-07-24 09:00:00 20.2 4 Oeste 16 Sudoeste 0 -- -- 73
2017-07-24 08:00:00 19 3 Oeste 13 Oeste 0 -- -- 78
2017-07-24 07:00:00 18.5 3 Oeste 14 Oeste 0 -- -- 79
2017-07-24 06:00:00 17.9 3 Oeste 14 Noroeste 0 -- -- 81
2017-07-24 05:00:00 17.1 2 Sur 8 Sudoeste 0 -- -- 86
2017-07-24 04:00:00 17.4 3 Sur 9 Noroeste 0 -- -- 79
2017-07-24 03:00:00 18.4 2 Oeste 13 Oeste 0 -- -- 72
2017-07-24 02:00:00 19 4 Oeste 14 Oeste 0 -- -- 67
2017-07-24 01:00:00 19.4 5 Oeste 21 Noroeste 0 -- -- 64
2017-07-24 00:00:00 20.3 3 Oeste 16 Norte 0 -- -- 57
2017-07-23 23:00:00 21.5 9 Norte 22 Norte 0 -- -- 52
2017-07-23 22:00:00 23.3 9 Norte 22 Noroeste 0 -- -- 48
2017-07-23 21:00:00 25.7 10 Norte 24 Norte 0 -- -- 44
2017-07-23 20:00:00 28.2 8 Norte 30 Oeste 0 -- -- 36
2017-07-23 19:00:00 29.6 5 Oeste 22 Sudoeste 0 -- -- 43
2017-07-23 18:00:00 30.4 4 Sudoeste 12 Sur 0 -- -- 45
2017-07-23 17:00:00 30.4 4 Norte 13 Norte 0 -- -- 49
2017-07-23 16:00:00 29.5 3 Norte 15 Norte 0 -- -- 48
2017-07-23 15:00:00 28.6 4 Norte 13 Oeste 0 -- -- 48
2017-07-23 14:00:00 27.5 6 Sudoeste 15 Sudoeste 0 -- -- 51
2017-07-23 13:00:00 25.7 4 Oeste 12 Sudoeste 0 -- -- 54
2017-07-23 12:00:00 23.9 4 Oeste 13 Noroeste 0 -- -- 60
2017-07-23 11:00:00 21 4 Sudoeste 14 Noroeste 0 -- -- 64
2017-07-23 10:00:00 19.2 4 Oeste 15 Oeste 0 -- -- 71
2017-07-23 09:00:00 17.5 3 Oeste 13 Noroeste 0.2 -- -- 79
2017-07-23 08:00:00 16.2 3 Oeste 10 Sudoeste 0 -- -- 81
2017-07-23 07:00:00 15.9 3 Sudoeste 12 Sur 0 -- -- 83
2017-07-23 06:00:00 15.9 3 Sudoeste 11 Sudoeste -- -- -- 83
2017-07-23 05:00:00 16.8 3 Sudoeste 12 Sudoeste 0.2 -- -- 82
2017-07-23 04:00:00 17.4 3 Oeste 10 Sur 0 -- -- 76
2017-07-23 03:00:00 18.4 3 Oeste 12 Noroeste 0 -- -- 76
2017-07-23 02:00:00 19.1 3 Oeste 11 Noroeste 0 -- -- 73
2017-07-23 01:00:00 19.9 4 Oeste 12 Norte 0 -- -- 69
2017-07-23 00:00:00 21.1 3 Oeste 15 Oeste 0 -- -- 65